createdAt,value
2019-01-18T00:00:54.045Z,23.10
2019-01-18T00:01:54.022Z,24.20
2019-01-18T00:02:53.998Z,21.80
2019-01-18T00:03:53.992Z,22.40
2019-01-18T00:04:54.002Z,24.30
2019-01-18T00:05:53.985Z,21.60
2019-01-18T00:06:53.971Z,24.20
2019-01-18T00:07:53.985Z,22.30
2019-01-18T00:08:53.979Z,21.10
2019-01-18T00:09:53.954Z,25.10
2019-01-18T00:10:53.965Z,21.20
2019-01-18T00:11:53.955Z,24.60
2019-01-18T00:12:53.944Z,22.70
2019-01-18T00:13:53.942Z,21.70
2019-01-18T00:14:53.930Z,22.30
2019-01-18T00:15:53.925Z,21.90
2019-01-18T00:16:53.911Z,21.70
2019-01-18T00:17:53.919Z,21.20
2019-01-18T00:18:53.889Z,21.60
2019-01-18T00:19:53.897Z,22.40
2019-01-18T00:20:54.078Z,21.80
2019-01-18T00:21:53.871Z,21.20
2019-01-18T00:22:53.873Z,23.50
2019-01-18T00:23:53.858Z,24.30
2019-01-18T00:24:53.876Z,24.10
2019-01-18T00:25:53.856Z,22.60
2019-01-18T00:26:54.041Z,21.90
2019-01-18T00:27:53.824Z,21.40
2019-01-18T00:28:53.835Z,24.90
2019-01-18T00:29:53.821Z,22.00
2019-01-18T00:30:53.806Z,21.20
2019-01-18T00:31:54.004Z,21.00
2019-01-18T00:32:53.791Z,20.50
2019-01-18T00:33:53.790Z,23.90
2019-01-18T00:34:53.775Z,22.90
2019-01-18T00:35:53.768Z,22.80
2019-01-18T00:36:53.776Z,21.50
2019-01-18T00:37:53.779Z,22.90
2019-01-18T00:38:53.747Z,22.00
2019-01-18T00:39:53.951Z,23.50
2019-01-18T00:40:53.746Z,21.50
2019-01-18T00:41:53.739Z,21.60
2019-01-18T00:42:53.718Z,22.00
2019-01-18T00:43:53.716Z,22.90
2019-01-18T00:44:53.733Z,23.10
2019-01-18T00:45:53.701Z,23.70
2019-01-18T00:46:53.706Z,23.30
2019-01-18T00:47:53.687Z,22.90
2019-01-18T00:48:53.688Z,21.80
2019-01-18T00:49:53.669Z,23.30
2019-01-18T00:50:53.663Z,22.40
2019-01-18T00:51:53.673Z,23.90
2019-01-18T00:52:53.647Z,23.20
2019-01-18T00:53:53.648Z,23.40
2019-01-18T00:54:53.642Z,24.90
2019-01-18T00:55:53.626Z,24.60
2019-01-18T00:56:53.825Z,26.30
2019-01-18T00:57:53.833Z,23.80
2019-01-18T00:58:53.809Z,25.40
2019-01-18T00:59:53.820Z,23.90
2019-01-18T01:00:53.598Z,24.80
2019-01-18T01:01:53.600Z,25.60
2019-01-18T01:02:53.586Z,23.80
2019-01-18T01:03:53.778Z,24.40
2019-01-18T01:04:53.580Z,25.30
2019-01-18T01:05:53.575Z,24.00
2019-01-18T01:06:53.552Z,25.00
2019-01-18T01:07:53.547Z,28.50
2019-01-18T01:08:53.745Z,25.40
2019-01-18T01:09:53.535Z,24.70
2019-01-18T01:10:53.542Z,23.20
2019-01-18T01:11:53.724Z,22.00
2019-01-18T01:12:53.525Z,23.00
2019-01-18T01:13:53.716Z,23.70
2019-01-18T01:14:53.498Z,22.80
2019-01-18T01:15:53.486Z,22.50
2019-01-18T01:16:53.698Z,22.10
2019-01-18T01:17:53.474Z,23.20
2019-01-18T01:18:53.666Z,24.60
2019-01-18T01:19:53.664Z,23.00
2019-01-18T01:20:53.453Z,23.50
2019-01-18T01:21:53.653Z,21.00
2019-01-18T01:22:53.454Z,21.90
2019-01-18T01:23:53.428Z,21.00
2019-01-18T01:24:53.430Z,21.20
2019-01-18T01:25:53.417Z,22.90
2019-01-18T01:26:53.419Z,22.90
2019-01-18T01:27:53.618Z,21.10
2019-01-18T01:28:53.404Z,20.90
2019-01-18T01:29:53.395Z,21.90
2019-01-18T01:30:53.401Z,19.50
2019-01-18T01:31:53.402Z,18.80
2019-01-18T01:32:53.395Z,22.90
2019-01-18T01:33:53.372Z,18.70
2019-01-18T01:34:53.354Z,18.40
2019-01-18T01:35:53.352Z,21.00
2019-01-18T01:36:53.338Z,20.10
2019-01-18T01:37:53.532Z,19.30
2019-01-18T01:38:53.334Z,19.50
2019-01-18T01:39:53.317Z,21.80
2019-01-18T01:40:53.311Z,18.80
2019-01-18T01:41:53.321Z,19.50
2019-01-18T01:42:53.502Z,19.10
2019-01-18T01:43:53.285Z,19.50
2019-01-18T01:44:53.280Z,17.90
2019-01-18T01:45:53.277Z,21.80
2019-01-18T01:46:53.283Z,17.90
2019-01-18T01:47:53.265Z,17.80
2019-01-18T01:48:53.469Z,17.90
2019-01-18T01:49:53.456Z,18.40
2019-01-18T01:50:53.447Z,18.70
2019-01-18T01:51:53.250Z,16.50
2019-01-18T01:52:53.443Z,20.60
2019-01-18T01:53:53.215Z,18.10
2019-01-18T01:54:53.214Z,17.80
2019-01-18T01:55:53.405Z,17.00
2019-01-18T01:56:53.193Z,17.10
2019-01-18T01:57:53.401Z,19.90
2019-01-18T01:58:53.404Z,18.20
2019-01-18T01:59:53.381Z,18.10
2019-01-18T02:00:53.179Z,18.60
2019-01-18T02:01:53.183Z,18.80
2019-01-18T02:02:53.367Z,18.80
2019-01-18T02:03:53.152Z,16.90
2019-01-18T02:04:53.144Z,19.90
2019-01-18T02:05:53.143Z,20.20
2019-01-18T02:06:53.158Z,20.00
2019-01-18T02:07:53.131Z,21.10
2019-01-18T02:08:53.340Z,21.30
2019-01-18T02:09:53.124Z,22.60
2019-01-18T02:10:53.307Z,20.90
2019-01-18T02:11:53.102Z,19.30
2019-01-18T02:12:53.089Z,21.80
2019-01-18T02:13:53.286Z,20.10
2019-01-18T02:14:53.071Z,22.10
2019-01-18T02:15:53.059Z,24.40
2019-01-18T02:16:53.077Z,22.80
2019-01-18T02:17:53.047Z,22.00
2019-01-18T02:18:53.063Z,22.20
2019-01-18T02:19:53.033Z,22.00
2019-01-18T02:20:53.028Z,24.40
2019-01-18T02:21:53.236Z,23.80
2019-01-18T02:22:53.009Z,21.90
2019-01-18T02:23:53.016Z,22.90
2019-01-18T02:24:53.004Z,22.10
2019-01-18T02:25:53.003Z,21.90
2019-01-18T02:26:52.986Z,23.30
2019-01-18T02:27:52.987Z,24.50
2019-01-18T02:28:52.973Z,23.10
2019-01-18T02:29:56.588Z,24.40
2019-01-18T02:30:52.954Z,22.50
2019-01-18T02:31:52.952Z,22.00
2019-01-18T02:32:53.139Z,23.00
2019-01-18T02:33:52.934Z,23.30
2019-01-18T02:34:53.129Z,22.80
2019-01-18T02:35:53.133Z,24.20
2019-01-18T02:36:52.908Z,24.30
2019-01-18T02:37:52.938Z,25.10
2019-01-18T02:38:52.900Z,25.00
2019-01-18T02:39:52.902Z,25.40
2019-01-18T02:40:52.884Z,24.10
2019-01-18T02:41:52.877Z,25.20
2019-01-18T02:42:52.882Z,25.10
2019-01-18T02:43:52.875Z,26.30
2019-01-18T02:44:52.852Z,27.20
2019-01-18T02:45:52.857Z,24.40
2019-01-18T02:46:52.846Z,24.90
2019-01-18T02:47:52.834Z,24.00
2019-01-18T02:48:52.833Z,23.50
2019-01-18T02:49:52.835Z,23.10
2019-01-18T02:50:53.012Z,24.70
2019-01-18T02:51:52.803Z,25.90
2019-01-18T02:52:52.791Z,24.70
2019-01-18T02:53:52.805Z,26.50
2019-01-18T02:54:52.982Z,26.20
2019-01-18T02:55:52.777Z,25.20
2019-01-18T02:56:52.770Z,24.50
2019-01-18T02:57:52.756Z,25.70
2019-01-18T02:58:52.953Z,25.40
2019-01-18T02:59:52.966Z,23.70
2019-01-18T03:00:52.743Z,23.50
2019-01-18T03:01:52.728Z,24.20
2019-01-18T03:02:52.740Z,25.20
2019-01-18T03:03:52.726Z,23.50
2019-01-18T03:04:52.710Z,25.10
2019-01-18T03:05:52.715Z,24.80
2019-01-18T03:06:52.699Z,24.10
2019-01-18T03:07:52.691Z,24.50
2019-01-18T03:08:52.882Z,26.00
2019-01-18T03:09:52.684Z,25.50
2019-01-18T03:10:52.672Z,25.60
2019-01-18T03:11:52.661Z,24.50
2019-01-18T03:12:52.656Z,25.00
2019-01-18T03:13:52.846Z,25.40
2019-01-18T03:14:52.849Z,26.20
2019-01-18T03:15:52.627Z,24.80
2019-01-18T03:16:52.621Z,24.50
2019-01-18T03:17:52.619Z,23.70
2019-01-18T03:18:52.810Z,25.10
2019-01-18T03:19:52.616Z,25.60
2019-01-18T03:20:52.596Z,25.90
2019-01-18T03:21:52.590Z,26.10
2019-01-18T03:22:52.783Z,28.70
2019-01-18T03:23:52.775Z,27.40
2019-01-18T03:24:52.573Z,25.10
2019-01-18T03:25:52.566Z,28.30
2019-01-18T03:26:52.567Z,24.70
2019-01-18T03:27:52.551Z,24.20
2019-01-18T03:28:52.749Z,24.30
2019-01-18T03:29:52.536Z,25.20
2019-01-18T03:30:52.520Z,25.30
2019-01-18T03:31:52.522Z,23.50
2019-01-18T03:32:52.514Z,24.90
2019-01-18T03:33:52.512Z,24.90
2019-01-18T03:34:52.498Z,23.70
2019-01-18T03:35:52.500Z,23.60
2019-01-18T03:36:52.480Z,23.20
2019-01-18T03:37:52.484Z,24.00
2019-01-18T03:38:52.470Z,23.00
2019-01-18T03:39:52.467Z,23.10
2019-01-18T03:40:52.454Z,23.90
2019-01-18T03:41:52.449Z,24.50
2019-01-18T03:42:52.447Z,24.00
2019-01-18T03:43:52.439Z,23.60
2019-01-18T03:44:52.428Z,23.80
2019-01-18T03:45:52.435Z,22.40
2019-01-18T03:46:52.424Z,23.90
2019-01-18T03:47:52.420Z,22.20
2019-01-18T03:48:52.597Z,23.00
2019-01-18T03:49:52.391Z,25.00
2019-01-18T03:50:52.387Z,24.30
2019-01-18T03:51:52.388Z,24.60
2019-01-18T03:52:52.591Z,23.20
2019-01-18T03:53:52.388Z,23.40
2019-01-18T03:54:52.563Z,24.70
2019-01-18T03:55:52.555Z,23.70
2019-01-18T03:56:52.561Z,23.60
2019-01-18T03:57:52.353Z,24.70
2019-01-18T03:58:52.349Z,25.10
2019-01-18T03:59:52.345Z,23.70
2019-01-18T04:00:52.327Z,23.60
2019-01-18T04:01:52.326Z,24.60
2019-01-18T04:02:52.336Z,24.90
2019-01-18T04:03:52.503Z,27.60
2019-01-18T04:04:52.519Z,25.20
2019-01-18T04:05:52.301Z,25.50
2019-01-18T04:06:52.279Z,23.00
2019-01-18T04:07:52.273Z,24.20
2019-01-18T04:08:52.475Z,24.70
2019-01-18T04:09:52.259Z,24.30
2019-01-18T04:10:52.246Z,23.10
2019-01-18T04:11:52.263Z,23.80
2019-01-18T04:12:52.243Z,24.30
2019-01-18T04:13:52.234Z,26.10
2019-01-18T04:14:52.233Z,25.80
2019-01-18T04:15:52.441Z,24.90
2019-01-18T04:16:52.221Z,24.80
2019-01-18T04:17:52.219Z,24.20
2019-01-18T04:18:52.425Z,26.50
2019-01-18T04:19:52.201Z,24.80
2019-01-18T04:20:52.181Z,24.70
2019-01-18T04:21:52.384Z,26.30
2019-01-18T04:22:52.165Z,24.50
2019-01-18T04:23:52.159Z,23.70
2019-01-18T04:24:52.167Z,25.20
2019-01-18T04:25:52.162Z,21.90
2019-01-18T04:26:52.152Z,21.90
2019-01-18T04:27:52.355Z,21.30
2019-01-18T04:28:52.131Z,21.40
2019-01-18T04:29:52.324Z,19.40
2019-01-18T04:30:52.126Z,22.80
2019-01-18T04:31:52.102Z,26.50
2019-01-18T04:32:52.102Z,25.80
2019-01-18T04:33:52.114Z,26.10
2019-01-18T04:34:52.089Z,23.20
2019-01-18T04:35:52.299Z,23.10
2019-01-18T04:36:52.068Z,22.80
2019-01-18T04:37:52.079Z,23.60
2019-01-18T04:38:52.059Z,22.30
2019-01-18T04:39:52.263Z,23.30
2019-01-18T04:40:52.060Z,23.00
2019-01-18T04:41:52.040Z,24.50
2019-01-18T04:42:52.038Z,24.40
2019-01-18T04:43:52.022Z,24.90
2019-01-18T04:44:52.229Z,26.20
2019-01-18T04:45:52.029Z,23.30
2019-01-18T04:46:52.217Z,22.20
2019-01-18T04:47:51.997Z,21.60
2019-01-18T04:48:52.198Z,22.50
2019-01-18T04:49:51.995Z,24.10
2019-01-18T04:50:51.978Z,23.80
2019-01-18T04:51:51.988Z,26.00
2019-01-18T04:52:51.972Z,23.80
2019-01-18T04:53:51.970Z,29.00
2019-01-18T04:54:51.988Z,24.90
2019-01-18T04:55:51.943Z,25.80
2019-01-18T04:56:51.939Z,26.50
2019-01-18T04:57:51.929Z,27.60
2019-01-18T04:58:51.931Z,30.10
2019-01-18T04:59:51.918Z,27.60
2019-01-18T05:00:51.921Z,26.00
2019-01-18T05:01:51.911Z,25.40
2019-01-18T05:02:51.907Z,24.90
2019-01-18T05:03:51.895Z,27.10
2019-01-18T05:04:51.902Z,30.30
2019-01-18T05:05:51.893Z,29.30
2019-01-18T05:06:51.884Z,29.70
2019-01-18T05:07:51.877Z,31.10
2019-01-18T05:08:51.877Z,31.70
2019-01-18T05:09:51.865Z,29.10
2019-01-18T05:10:51.849Z,27.70
2019-01-18T05:11:51.840Z,29.60
2019-01-18T05:12:51.834Z,29.00
2019-01-18T05:13:52.045Z,29.90
2019-01-18T05:14:51.819Z,30.20
2019-01-18T05:15:52.031Z,28.60
2019-01-18T05:16:51.869Z,29.30
2019-01-18T05:17:51.808Z,30.50
2019-01-18T05:18:51.797Z,30.40
2019-01-18T05:19:51.790Z,32.90
2019-01-18T05:20:51.780Z,29.90
2019-01-18T05:21:51.778Z,28.80
2019-01-18T05:22:51.770Z,28.50
2019-01-18T05:23:51.763Z,32.30
2019-01-18T05:24:51.966Z,34.60
2019-01-18T05:25:51.760Z,32.50
2019-01-18T05:26:51.737Z,29.60
2019-01-18T05:27:51.733Z,30.80
2019-01-18T05:28:51.736Z,29.50
2019-01-18T05:29:51.727Z,30.60
2019-01-18T05:30:51.921Z,31.00
2019-01-18T05:31:51.704Z,32.80
2019-01-18T05:32:51.905Z,35.00
2019-01-18T05:33:51.897Z,32.80
2019-01-18T05:34:51.692Z,32.20
2019-01-18T05:35:51.678Z,32.50
2019-01-18T05:36:51.673Z,36.50
2019-01-18T05:37:51.869Z,35.50
2019-01-18T05:38:51.662Z,38.00
2019-01-18T05:39:51.652Z,37.80
2019-01-18T05:40:51.694Z,36.80
2019-01-18T05:41:51.637Z,37.70
2019-01-18T05:42:51.629Z,35.90
2019-01-18T05:43:51.624Z,35.20
2019-01-18T05:44:51.616Z,39.50
2019-01-18T05:45:51.617Z,34.80
2019-01-18T05:46:51.614Z,37.50
2019-01-18T05:47:51.600Z,40.00
2019-01-18T05:48:51.595Z,40.80
2019-01-18T05:49:51.588Z,37.90
2019-01-18T05:50:51.593Z,35.50
2019-01-18T05:51:51.572Z,35.80
2019-01-18T05:52:51.569Z,34.30
2019-01-18T05:53:51.570Z,35.90
2019-01-18T05:54:51.562Z,35.30
2019-01-18T05:55:51.552Z,38.90
2019-01-18T05:56:51.556Z,36.70
2019-01-18T05:57:51.540Z,38.20
2019-01-18T05:58:51.535Z,39.60
2019-01-18T05:59:51.533Z,39.80
2019-01-18T06:00:55.348Z,37.30
2019-01-18T06:01:51.503Z,38.00
2019-01-18T06:02:51.495Z,39.00
2019-01-18T06:03:51.491Z,40.30
2019-01-18T06:04:51.485Z,44.10
2019-01-18T06:05:51.491Z,37.00
2019-01-18T06:06:51.469Z,35.20
2019-01-18T06:07:51.474Z,34.40
2019-01-18T06:08:51.466Z,33.50
2019-01-18T06:09:51.457Z,34.90
2019-01-18T06:10:51.445Z,31.10
2019-01-18T06:11:51.439Z,36.90
2019-01-18T06:12:51.435Z,36.00
2019-01-18T06:13:51.425Z,33.50
2019-01-18T06:14:51.424Z,37.50
2019-01-18T06:15:51.613Z,41.10
2019-01-18T06:16:51.404Z,41.20
2019-01-18T06:17:51.397Z,41.90
2019-01-18T06:18:51.390Z,42.40
2019-01-18T06:19:51.381Z,43.20
2019-01-18T06:20:51.371Z,43.00
2019-01-18T06:21:51.370Z,39.50
2019-01-18T06:22:51.366Z,43.00
2019-01-18T06:23:51.365Z,41.00
2019-01-18T06:24:51.365Z,45.80
2019-01-18T06:25:51.342Z,39.50
2019-01-18T06:26:51.344Z,41.00
2019-01-18T06:27:51.349Z,42.00
2019-01-18T06:28:51.316Z,45.20
2019-01-18T06:29:51.311Z,44.20
2019-01-18T06:30:51.316Z,41.70
2019-01-18T06:31:51.303Z,43.60
2019-01-18T06:32:51.491Z,45.00
2019-01-18T06:33:51.279Z,46.70
2019-01-18T06:34:51.294Z,47.70
2019-01-18T06:35:51.263Z,45.20
2019-01-18T06:36:51.264Z,46.60
2019-01-18T06:37:51.458Z,46.70
2019-01-18T06:38:51.249Z,41.90
2019-01-18T06:39:51.246Z,40.10
2019-01-18T06:40:51.250Z,35.60
2019-01-18T06:41:51.230Z,32.80
2019-01-18T06:42:51.249Z,34.90
2019-01-18T06:43:51.223Z,35.40
2019-01-18T06:44:51.227Z,35.30
2019-01-18T06:45:51.421Z,34.50
2019-01-18T06:46:51.397Z,39.90
2019-01-18T06:47:51.204Z,34.70
2019-01-18T06:48:51.175Z,36.30
2019-01-18T06:49:51.173Z,37.30
2019-01-18T06:50:51.163Z,40.80
2019-01-18T06:51:51.350Z,41.40
2019-01-18T06:52:51.146Z,43.40
2019-01-18T06:53:51.155Z,40.20
2019-01-18T06:54:51.154Z,37.70
2019-01-18T06:55:51.357Z,39.70
2019-01-18T06:56:51.129Z,41.20
2019-01-18T06:57:51.114Z,44.30
2019-01-18T06:58:51.125Z,40.10
2019-01-18T06:59:51.113Z,40.40
2019-01-18T07:00:51.104Z,44.30
2019-01-18T07:01:51.082Z,47.00
2019-01-18T07:02:51.075Z,47.30
2019-01-18T07:03:51.269Z,48.40
2019-01-18T07:04:51.267Z,48.30
2019-01-18T07:05:51.055Z,46.10
2019-01-18T07:06:51.053Z,40.20
2019-01-18T07:07:51.041Z,41.30
2019-01-18T07:08:51.028Z,42.30
2019-01-18T07:09:51.027Z,42.20
2019-01-18T07:10:51.044Z,43.90
2019-01-18T07:11:51.018Z,40.50
2019-01-18T07:12:51.024Z,40.70
2019-01-18T07:13:51.032Z,43.40
2019-01-18T07:14:51.042Z,42.10
2019-01-18T07:15:50.987Z,43.40
2019-01-18T07:16:51.196Z,43.20
2019-01-18T07:17:50.980Z,45.80
2019-01-18T07:18:51.175Z,45.50
2019-01-18T07:19:50.959Z,43.90
2019-01-18T07:20:50.973Z,41.10
2019-01-18T07:21:50.941Z,45.00
2019-01-18T07:22:50.949Z,45.70
2019-01-18T07:23:50.930Z,48.10
2019-01-18T07:24:50.920Z,43.50
2019-01-18T07:25:51.129Z,47.20
2019-01-18T07:26:50.917Z,40.10
2019-01-18T07:27:51.102Z,36.20
2019-01-18T07:28:51.808Z,39.10
2019-01-18T07:29:51.097Z,38.60
2019-01-18T07:30:50.874Z,40.80
2019-01-18T07:31:50.862Z,36.90
2019-01-18T07:32:50.865Z,41.30
2019-01-18T07:33:50.857Z,42.80
2019-01-18T07:34:50.850Z,44.10
2019-01-18T07:35:50.849Z,46.40
2019-01-18T07:36:50.835Z,40.90
2019-01-18T07:37:51.023Z,49.00
2019-01-18T07:38:50.819Z,41.30
2019-01-18T07:39:50.807Z,49.40
2019-01-18T07:40:50.806Z,43.50
2019-01-18T07:41:50.807Z,44.60
2019-01-18T07:42:50.790Z,39.50
2019-01-18T07:43:50.778Z,42.50
2019-01-18T07:44:50.777Z,47.60
2019-01-18T07:45:50.768Z,44.30
2019-01-18T07:46:50.762Z,38.80
2019-01-18T07:47:50.758Z,46.50
2019-01-18T07:48:50.745Z,50.90
2019-01-18T07:49:50.742Z,47.80
2019-01-18T07:50:50.757Z,44.60
2019-01-18T07:51:50.726Z,46.60
2019-01-18T07:52:50.712Z,43.60
2019-01-18T07:53:50.719Z,42.30
2019-01-18T07:54:50.708Z,45.80
2019-01-18T07:55:50.695Z,44.30
2019-01-18T07:56:50.689Z,39.80
2019-01-18T07:57:50.682Z,41.00
2019-01-18T07:58:50.677Z,42.80
2019-01-18T07:59:50.665Z,44.20
2019-01-18T08:00:50.877Z,41.40
2019-01-18T08:01:50.862Z,39.30
2019-01-18T08:02:50.660Z,44.10
2019-01-18T08:03:50.631Z,41.80
2019-01-18T08:04:50.630Z,41.20
2019-01-18T08:05:50.641Z,41.40
2019-01-18T08:06:50.614Z,41.90
2019-01-18T08:07:50.624Z,42.80
2019-01-18T08:08:50.610Z,39.90
2019-01-18T08:09:50.797Z,45.10
2019-01-18T08:10:50.602Z,45.50
2019-01-18T08:11:50.577Z,47.80
2019-01-18T08:12:50.783Z,44.10
2019-01-18T08:13:50.559Z,47.10
2019-01-18T08:14:50.554Z,45.10
2019-01-18T08:15:50.771Z,41.80
2019-01-18T08:16:50.741Z,39.60
2019-01-18T08:17:50.552Z,37.70
2019-01-18T08:18:50.523Z,40.50
2019-01-18T08:19:50.733Z,47.00
2019-01-18T08:20:50.524Z,39.80
2019-01-18T08:21:50.717Z,42.60
2019-01-18T08:22:50.498Z,43.20
2019-01-18T08:23:50.496Z,40.00
2019-01-18T08:24:50.495Z,43.50
2019-01-18T08:25:50.473Z,42.00
2019-01-18T08:26:50.481Z,44.60
2019-01-18T08:27:50.465Z,49.40
2019-01-18T08:28:50.457Z,51.70
2019-01-18T08:29:50.448Z,52.70
2019-01-18T08:30:50.640Z,48.00
2019-01-18T08:31:50.445Z,47.00
2019-01-18T08:32:50.421Z,50.30
2019-01-18T08:33:50.637Z,43.40
2019-01-18T08:34:50.409Z,45.70
2019-01-18T08:35:50.400Z,48.20
2019-01-18T08:36:50.393Z,46.20
2019-01-18T08:37:50.397Z,45.40
2019-01-18T08:38:50.380Z,48.10
2019-01-18T08:39:50.372Z,46.10
2019-01-18T08:40:50.375Z,46.20
2019-01-18T08:41:50.358Z,49.20
2019-01-18T08:42:50.364Z,50.20
2019-01-18T08:43:50.355Z,48.80
2019-01-18T08:44:50.343Z,48.50
2019-01-18T08:45:50.628Z,51.40
2019-01-18T08:46:50.323Z,50.00
2019-01-18T08:47:50.312Z,51.80
2019-01-18T08:48:50.539Z,53.30
2019-01-18T08:49:50.312Z,48.20
2019-01-18T08:50:50.301Z,55.30
2019-01-18T08:51:50.288Z,58.60
2019-01-18T08:52:50.527Z,58.50
2019-01-18T08:53:50.498Z,58.60
2019-01-18T08:54:50.278Z,57.80
2019-01-18T08:55:50.272Z,58.40
2019-01-18T08:56:50.251Z,56.60
2019-01-18T08:57:50.240Z,53.00
2019-01-18T08:58:50.276Z,56.20
2019-01-18T08:59:50.260Z,58.90
2019-01-18T09:00:50.428Z,58.60
2019-01-18T09:01:50.225Z,57.20
2019-01-18T09:02:50.221Z,60.60
2019-01-18T09:03:50.196Z,59.30
2019-01-18T09:04:50.193Z,54.50
2019-01-18T09:05:50.190Z,53.70
2019-01-18T09:06:50.178Z,58.20
2019-01-18T09:07:50.169Z,58.60
2019-01-18T09:08:50.378Z,58.10
2019-01-18T09:09:50.354Z,59.70
2019-01-18T09:10:50.148Z,62.50
2019-01-18T09:11:50.345Z,56.30
2019-01-18T09:12:50.141Z,62.10
2019-01-18T09:13:50.129Z,60.30
2019-01-18T09:14:50.117Z,58.70
2019-01-18T09:15:50.315Z,59.30
2019-01-18T09:16:50.122Z,56.30
2019-01-18T09:17:50.098Z,54.60
2019-01-18T09:18:50.098Z,57.50
2019-01-18T09:19:50.088Z,58.60
2019-01-18T09:20:50.082Z,58.60
2019-01-18T09:21:50.084Z,61.00
2019-01-18T09:22:50.063Z,57.30
2019-01-18T09:23:50.069Z,58.00
2019-01-18T09:24:50.050Z,58.70
2019-01-18T09:25:50.271Z,55.10
2019-01-18T09:26:50.250Z,59.30
2019-01-18T09:27:50.031Z,59.50
2019-01-18T09:28:50.023Z,64.40
2019-01-18T09:29:50.012Z,63.40
2019-01-18T09:30:50.017Z,61.90
2019-01-18T09:31:50.012Z,63.90
2019-01-18T09:32:49.998Z,61.60
2019-01-18T09:33:49.998Z,64.80
2019-01-18T09:34:49.982Z,59.80
2019-01-18T09:35:49.975Z,62.90
2019-01-18T09:36:49.967Z,66.10
2019-01-18T09:37:49.975Z,63.50
2019-01-18T09:38:50.156Z,62.20
2019-01-18T09:39:49.952Z,64.20
2019-01-18T09:40:49.947Z,62.40
2019-01-18T09:41:49.935Z,66.60
2019-01-18T09:42:49.952Z,65.60
2019-01-18T09:43:49.922Z,60.80
2019-01-18T09:44:49.911Z,61.10
2019-01-18T09:45:49.906Z,58.30
2019-01-18T09:46:49.911Z,62.30
2019-01-18T09:47:50.108Z,60.30
2019-01-18T09:48:50.102Z,61.50
2019-01-18T09:49:49.880Z,60.50
2019-01-18T09:50:49.892Z,59.80
2019-01-18T09:51:49.864Z,67.40
2019-01-18T09:52:50.060Z,56.80
2019-01-18T09:53:49.868Z,59.40
2019-01-18T09:54:49.866Z,59.20
2019-01-18T09:55:49.850Z,66.50
2019-01-18T09:56:49.843Z,63.00
2019-01-18T09:57:50.032Z,57.90
2019-01-18T09:58:49.814Z,59.40
2019-01-18T09:59:49.825Z,56.90
2019-01-18T10:00:49.809Z,62.00
2019-01-18T10:01:49.804Z,59.50
2019-01-18T10:02:49.798Z,59.70
2019-01-18T10:03:49.782Z,59.90
2019-01-18T10:04:49.794Z,61.00
2019-01-18T10:05:49.786Z,60.70
2019-01-18T10:06:49.763Z,57.40
2019-01-18T10:07:49.761Z,61.00
2019-01-18T10:08:49.761Z,60.70
2019-01-18T10:09:49.747Z,61.00
2019-01-18T10:10:49.741Z,58.70
2019-01-18T10:11:49.734Z,63.50
2019-01-18T10:12:49.750Z,61.40
2019-01-18T10:13:49.723Z,60.00
2019-01-18T10:14:49.717Z,56.70
2019-01-18T10:15:49.717Z,54.80
2019-01-18T10:16:49.930Z,55.40
2019-01-18T10:17:49.722Z,56.10
2019-01-18T10:18:49.703Z,58.20
2019-01-18T10:19:49.683Z,56.40
2019-01-18T10:20:49.672Z,57.10
2019-01-18T10:21:49.673Z,56.40
2019-01-18T10:22:49.666Z,55.20
2019-01-18T10:23:49.651Z,64.50
2019-01-18T10:24:49.850Z,56.90
2019-01-18T10:25:49.663Z,58.10
2019-01-18T10:26:49.643Z,59.90
2019-01-18T10:27:49.640Z,58.30
2019-01-18T10:28:49.629Z,56.40
2019-01-18T10:29:49.820Z,58.10
2019-01-18T10:30:49.811Z,57.00
2019-01-18T10:31:55.883Z,61.70
2019-01-18T10:32:49.607Z,57.40
2019-01-18T10:33:49.807Z,60.20
2019-01-18T10:35:49.583Z,58.50
2019-01-18T10:36:49.575Z,60.30
2019-01-18T10:37:49.565Z,62.40
2019-01-18T10:38:49.566Z,63.60
2019-01-18T10:39:49.565Z,63.20
2019-01-18T10:40:49.754Z,62.10
2019-01-18T10:41:49.540Z,62.80
2019-01-18T10:42:49.756Z,62.60
2019-01-18T10:43:49.536Z,67.60
2019-01-18T10:44:49.527Z,63.50
2019-01-18T10:45:49.514Z,65.00
2019-01-18T10:46:49.713Z,64.10
2019-01-18T10:47:49.500Z,60.40
2019-01-18T10:48:49.487Z,63.30
2019-01-18T10:49:49.484Z,61.20
2019-01-18T10:50:49.488Z,62.60
2019-01-18T10:51:49.471Z,64.70
2019-01-18T10:52:49.468Z,64.50
2019-01-18T10:53:49.484Z,65.80
2019-01-18T10:54:49.448Z,69.10
2019-01-18T10:55:49.643Z,65.30
2019-01-18T10:56:49.442Z,64.20
2019-01-18T10:57:49.447Z,62.70
2019-01-18T10:58:49.427Z,68.70
2019-01-18T10:59:49.645Z,66.60
2019-01-18T11:00:49.409Z,64.20
2019-01-18T11:01:49.405Z,65.30
2019-01-18T11:02:49.399Z,64.40
2019-01-18T11:03:49.394Z,68.10
2019-01-18T11:04:49.436Z,70.20
2019-01-18T11:05:49.391Z,68.50
2019-01-18T11:06:49.608Z,63.30
2019-01-18T11:07:49.364Z,65.30
2019-01-18T11:08:49.562Z,67.30
2019-01-18T11:09:49.377Z,71.00
2019-01-18T11:10:49.345Z,66.30
2019-01-18T11:11:49.338Z,63.00
2019-01-18T11:12:49.349Z,59.90
2019-01-18T11:13:49.328Z,61.40
2019-01-18T11:14:49.333Z,68.20
2019-01-18T11:15:49.319Z,63.60
2019-01-18T11:16:49.309Z,63.70
2019-01-18T11:17:49.502Z,69.80
2019-01-18T11:18:49.515Z,69.10
2019-01-18T11:19:49.281Z,68.40
2019-01-18T11:20:51.100Z,70.80
2019-01-18T11:21:49.283Z,70.10
2019-01-18T11:22:49.280Z,69.70
2019-01-18T11:23:49.476Z,67.70
2019-01-18T11:24:49.266Z,67.90
2019-01-18T11:25:49.267Z,69.50
2019-01-18T11:26:49.253Z,73.00
2019-01-18T11:27:49.432Z,70.10
2019-01-18T11:28:49.234Z,67.20
2019-01-18T11:29:49.450Z,70.10
2019-01-18T11:30:49.218Z,69.50
2019-01-18T11:31:49.210Z,73.40
2019-01-18T11:32:49.416Z,73.90
2019-01-18T11:33:49.191Z,70.50
2019-01-18T11:34:49.180Z,70.90
2019-01-18T11:35:49.390Z,70.10
2019-01-18T11:36:49.172Z,67.70
2019-01-18T11:37:49.364Z,70.10
2019-01-18T11:38:49.168Z,70.70
2019-01-18T11:39:49.154Z,71.60
2019-01-18T11:40:49.141Z,72.20
2019-01-18T11:41:49.347Z,76.80
2019-01-18T11:42:49.129Z,74.50
2019-01-18T11:43:49.135Z,72.30
2019-01-18T11:44:49.127Z,79.10
2019-01-18T11:45:49.114Z,73.90
2019-01-18T11:46:49.101Z,73.90
2019-01-18T11:47:49.108Z,72.10
2019-01-18T11:48:50.392Z,75.40
2019-01-18T11:49:49.087Z,67.40
2019-01-18T11:50:49.092Z,70.80
2019-01-18T11:51:49.096Z,68.30
2019-01-18T11:52:49.265Z,67.00
2019-01-18T11:53:49.056Z,70.80
2019-01-18T11:54:49.098Z,73.90
2019-01-18T11:55:49.042Z,72.20
2019-01-18T11:56:49.034Z,70.10
2019-01-18T11:57:49.039Z,67.10
2019-01-18T11:58:49.031Z,67.00
2019-01-18T11:59:50.549Z,69.60
2019-01-18T12:00:49.013Z,64.40
2019-01-18T12:01:49.010Z,72.50
2019-01-18T12:02:48.998Z,71.40
2019-01-18T12:03:48.977Z,69.00
2019-01-18T12:04:48.972Z,68.80
2019-01-18T12:05:48.978Z,71.30
2019-01-18T12:06:49.184Z,69.60
2019-01-18T12:07:49.165Z,64.10
2019-01-18T12:08:48.950Z,70.00
2019-01-18T12:09:48.954Z,69.10
2019-01-18T12:10:49.161Z,70.80
2019-01-18T12:11:48.933Z,73.30
2019-01-18T12:12:48.936Z,68.50
2019-01-18T12:13:49.580Z,64.20
2019-01-18T12:14:48.910Z,66.30
2019-01-18T12:15:48.912Z,66.20
2019-01-18T12:16:48.894Z,65.90
2019-01-18T12:17:48.888Z,71.00
2019-01-18T12:18:48.896Z,67.60
2019-01-18T12:19:49.079Z,66.00
2019-01-18T12:20:48.870Z,66.60
2019-01-18T12:21:49.074Z,64.80
2019-01-18T12:22:49.057Z,66.90
2019-01-18T12:23:48.866Z,72.50
2019-01-18T12:24:48.835Z,69.60
2019-01-18T12:25:48.829Z,74.20
2019-01-18T12:26:48.822Z,72.90
2019-01-18T12:27:48.844Z,71.60
2019-01-18T12:28:48.819Z,70.60
2019-01-18T12:29:49.021Z,70.30
2019-01-18T12:30:48.824Z,68.30
2019-01-18T12:31:48.792Z,68.10
2019-01-18T12:32:48.795Z,65.30
2019-01-18T12:33:48.772Z,67.40
2019-01-18T12:34:48.770Z,66.40
2019-01-18T12:35:48.773Z,65.00
2019-01-18T12:36:48.762Z,62.40
2019-01-18T12:37:48.751Z,62.50
2019-01-18T12:38:48.750Z,66.70
2019-01-18T12:39:48.742Z,66.90
2019-01-18T12:40:48.739Z,64.50
2019-01-18T12:41:48.757Z,61.30
2019-01-18T12:42:48.928Z,66.90
2019-01-18T12:43:48.939Z,64.00
2019-01-18T12:44:48.720Z,69.10
2019-01-18T12:45:48.701Z,67.00
2019-01-18T12:46:48.697Z,64.90
2019-01-18T12:47:48.689Z,64.00
2019-01-18T12:48:48.675Z,67.00
2019-01-18T12:49:48.667Z,67.60
2019-01-18T12:50:48.867Z,66.90
2019-01-18T12:51:48.654Z,69.50
2019-01-18T12:52:48.646Z,66.00
2019-01-18T12:53:48.638Z,64.50